Main page
METAR-TAF:

METAR-TAF

Airports :

Hihifo Airport

Wallis, France

latitude: 13-14S, longitude: 176-10W, elevation: 23 m

METAR: missing

Time: 01:59 (13:59 UTC)

Forecast

The report was made 8 hours and 59 minutes ago, at 05:00 UTC
Forecast valid from 21 at 06 UTC to 22 at 06 UTC
Wind 5 kt from the East
Visibility 10 km or more
Scattered clouds at a height of 2000 ft
Temporary
from 21 at 10 UTC to 22 at 06 UTC
Few clouds at a height of 1800 ft, Towering cumulus.
rain showers

TAF: NLWW 210500Z 2106/2206 10005KT 9999 SCT020 TEMPO 2110/2206 SHRA FEW018TCU

Weather observations and forecasts of more than 4000 airports (METAR and TAF reports).

The available stations are represented by yellow and red dots on the map.

Hover mouse over dot to see the name of the station.

Then click to see weather observations and forecasts.

To change the map : click on the green buttons with a black cross to zoom in, on the green button with a dash to zoom out, or on the green arrows for adjacent maps.


METAR-TAF: